createdAt,value
2019-06-07T00:00:34.945Z,15.50
2019-06-07T00:01:16.455Z,15.54
2019-06-07T00:02:16.514Z,15.59
2019-06-07T00:03:26.645Z,15.60
2019-06-07T00:04:16.135Z,15.58
2019-06-07T00:05:18.601Z,15.62
2019-06-07T00:06:21.438Z,15.68
2019-06-07T00:07:17.829Z,15.63
2019-06-07T00:08:25.068Z,15.77
2019-06-07T00:09:18.649Z,15.70
2019-06-07T00:10:32.602Z,15.80
2019-06-07T00:11:18.591Z,15.78
2019-06-07T00:12:17.626Z,15.81
2019-06-07T00:13:18.768Z,15.84
2019-06-07T00:14:16.594Z,15.80
2019-06-07T00:15:21.095Z,15.77
2019-06-07T00:16:19.864Z,15.85
2019-06-07T00:17:17.542Z,15.77
2019-06-07T00:18:20.912Z,15.77
2019-06-07T00:19:16.231Z,15.77
2019-06-07T00:20:19.083Z,15.77
2019-06-07T00:21:17.154Z,15.62
2019-06-07T00:22:29.095Z,15.65
2019-06-07T00:23:20.148Z,15.65
2019-06-07T00:24:16.822Z,15.66
2019-06-07T00:25:18.394Z,15.76
2019-06-07T00:26:19.185Z,15.76
2019-06-07T00:27:15.183Z,15.66
2019-06-07T00:28:17.343Z,15.59
2019-06-07T00:29:16.843Z,15.35
2019-06-07T00:30:42.402Z,15.35
2019-06-07T00:31:17.468Z,15.11
2019-06-07T00:32:18.372Z,15.12
2019-06-07T00:33:18.447Z,15.11
2019-06-07T00:34:17.041Z,15.07
2019-06-07T00:35:18.983Z,15.11
2019-06-07T00:36:17.650Z,15.25
2019-06-07T00:37:16.424Z,15.26
2019-06-07T00:38:16.817Z,15.35
2019-06-07T00:39:20.269Z,15.32
2019-06-07T00:40:20.901Z,15.36
2019-06-07T00:41:15.714Z,15.29
2019-06-07T00:42:18.617Z,15.44
2019-06-07T00:43:17.545Z,15.43
2019-06-07T00:44:15.096Z,15.44
2019-06-07T00:45:19.038Z,15.45
2019-06-07T00:46:16.151Z,15.45
2019-06-07T00:47:16.458Z,15.44
2019-06-07T00:48:24.529Z,15.45
2019-06-07T00:49:29.601Z,15.52
2019-06-07T00:50:16.390Z,15.54
2019-06-07T00:51:17.251Z,15.54
2019-06-07T00:53:07.992Z,15.51
2019-06-07T00:53:20.431Z,15.51
2019-06-07T00:54:17.096Z,15.56
2019-06-07T00:55:17.495Z,15.60
2019-06-07T00:56:16.193Z,15.51
2019-06-07T00:57:16.671Z,15.47
2019-06-07T00:58:15.532Z,15.48
2019-06-07T00:59:16.926Z,15.45
2019-06-07T01:00:15.579Z,15.44
2019-06-07T01:01:17.584Z,15.32
2019-06-07T01:02:16.095Z,15.23
2019-06-07T01:03:14.956Z,15.12
2019-06-07T01:04:17.734Z,15.12
2019-06-07T01:05:15.908Z,15.11
2019-06-07T01:06:14.997Z,15.17
2019-06-07T01:07:17.119Z,15.12
2019-06-07T01:08:14.991Z,15.11
2019-06-07T01:09:15.316Z,15.19
2019-06-07T01:10:16.541Z,15.11
2019-06-07T01:11:15.943Z,15.12
2019-06-07T01:12:18.101Z,14.93
2019-06-07T01:13:15.482Z,15.05
2019-06-07T01:14:15.238Z,15.05
2019-06-07T01:15:17.283Z,15.07
2019-06-07T01:16:14.199Z,15.05
2019-06-07T01:17:27.995Z,15.10
2019-06-07T01:19:14.151Z,15.08
2019-06-07T01:20:14.250Z,15.08
2019-06-07T01:21:15.817Z,15.07
2019-06-07T01:22:16.360Z,15.12
2019-06-07T01:23:54.344Z,15.15
2019-06-07T01:24:15.188Z,15.15
2019-06-07T01:25:15.635Z,15.11
2019-06-07T01:26:16.792Z,15.14
2019-06-07T01:27:16.658Z,15.11
2019-06-07T01:28:14.005Z,15.08
2019-06-07T01:29:13.996Z,15.11
2019-06-07T01:30:13.972Z,15.08
2019-06-07T01:31:13.962Z,15.03
2019-06-07T01:32:13.941Z,14.96
2019-06-07T01:33:13.939Z,14.97
2019-06-07T01:34:13.917Z,14.99
2019-06-07T01:35:13.903Z,14.96
2019-06-07T01:36:13.880Z,15.03
2019-06-07T01:37:13.860Z,15.07
2019-06-07T01:38:13.841Z,15.03
2019-06-07T01:39:13.830Z,14.99
2019-06-07T01:40:13.905Z,14.97
2019-06-07T01:41:13.793Z,14.96
2019-06-07T01:42:13.789Z,14.99
2019-06-07T01:43:13.757Z,14.93
2019-06-07T01:44:13.750Z,15.01
2019-06-07T01:45:14.553Z,15.01
2019-06-07T01:46:13.708Z,15.01
2019-06-07T01:47:13.695Z,14.99
2019-06-07T01:48:13.681Z,14.96
2019-06-07T01:49:13.659Z,14.92
2019-06-07T01:50:13.642Z,14.96
2019-06-07T01:51:13.639Z,14.90
2019-06-07T01:52:13.616Z,14.87
2019-06-07T01:53:13.593Z,14.86
2019-06-07T01:54:49.153Z,14.85
2019-06-07T01:55:13.560Z,14.86
2019-06-07T01:56:13.585Z,14.82
2019-06-07T01:57:30.937Z,14.90
2019-06-07T01:58:13.512Z,14.86
2019-06-07T01:59:13.497Z,14.86
2019-06-07T02:00:14.418Z,14.83
2019-06-07T02:01:13.470Z,14.86
2019-06-07T02:02:13.452Z,14.86
2019-06-07T02:03:13.433Z,14.87
2019-06-07T02:04:13.414Z,14.85
2019-06-07T02:05:13.396Z,14.85
2019-06-07T02:06:13.379Z,14.87
2019-06-07T02:07:13.361Z,14.83
2019-06-07T02:08:13.408Z,14.86
2019-06-07T02:09:13.335Z,14.79
2019-06-07T02:10:13.312Z,14.82
2019-06-07T02:11:13.297Z,14.82
2019-06-07T02:12:25.709Z,14.83
2019-06-07T02:13:13.266Z,14.82
2019-06-07T02:14:13.244Z,14.71
2019-06-07T02:15:13.239Z,14.83
2019-06-07T02:16:13.214Z,14.73
2019-06-07T02:17:13.198Z,14.56
2019-06-07T02:18:13.177Z,14.56
2019-06-07T02:19:13.180Z,14.59
2019-06-07T02:20:13.147Z,14.56
2019-06-07T02:21:13.127Z,14.59
2019-06-07T02:22:13.111Z,14.56
2019-06-07T02:23:13.096Z,14.48
2019-06-07T02:24:13.079Z,14.38
2019-06-07T02:25:39.302Z,14.49
2019-06-07T02:26:13.048Z,14.37
2019-06-07T02:27:13.028Z,14.41
2019-06-07T02:28:27.641Z,14.46
2019-06-07T02:29:12.994Z,14.38
2019-06-07T02:31:12.973Z,14.36
2019-06-07T02:32:12.950Z,14.33
2019-06-07T02:33:12.934Z,14.31
2019-06-07T02:34:12.910Z,14.27
2019-06-07T02:35:12.896Z,14.09
2019-06-07T02:36:12.886Z,14.03
2019-06-07T02:37:12.873Z,13.86
2019-06-07T02:38:12.850Z,13.68
2019-06-07T02:39:12.830Z,13.61
2019-06-07T02:40:12.817Z,13.49
2019-06-07T02:41:12.796Z,13.45
2019-06-07T02:42:12.782Z,13.42
2019-06-07T02:43:12.777Z,13.42
2019-06-07T02:44:12.747Z,13.43
2019-06-07T02:45:12.726Z,13.54
2019-06-07T02:46:26.465Z,13.58
2019-06-07T02:47:12.696Z,13.60
2019-06-07T02:48:12.683Z,13.54
2019-06-07T02:49:12.702Z,13.51
2019-06-07T02:50:12.653Z,13.58
2019-06-07T02:51:12.639Z,13.60
2019-06-07T02:52:12.613Z,13.61
2019-06-07T02:53:12.607Z,13.63
2019-06-07T02:54:12.575Z,13.64
2019-06-07T02:55:12.565Z,13.63
2019-06-07T02:56:37.410Z,13.76
2019-06-07T02:57:12.524Z,13.78
2019-06-07T02:58:12.509Z,13.68
2019-06-07T02:59:12.491Z,13.72
2019-06-07T03:00:40.780Z,13.75
2019-06-07T03:01:12.454Z,13.75
2019-06-07T03:02:12.437Z,13.54
2019-06-07T03:03:12.426Z,13.61
2019-06-07T03:04:12.427Z,13.60
2019-06-07T03:05:12.392Z,13.61
2019-06-07T03:06:12.371Z,13.65
2019-06-07T03:07:12.356Z,13.68
2019-06-07T03:08:12.339Z,13.61
2019-06-07T03:09:12.319Z,13.54
2019-06-07T03:10:12.303Z,13.46
2019-06-07T03:11:12.286Z,13.53
2019-06-07T03:12:12.268Z,13.58
2019-06-07T03:13:12.249Z,13.63
2019-06-07T03:14:12.233Z,13.63
2019-06-07T03:15:30.154Z,13.75
2019-06-07T03:16:12.200Z,13.76
2019-06-07T03:17:12.181Z,13.88
2019-06-07T03:18:12.163Z,13.79
2019-06-07T03:19:12.153Z,13.88
2019-06-07T03:20:12.131Z,13.78
2019-06-07T03:21:12.118Z,13.91
2019-06-07T03:22:12.099Z,13.83
2019-06-07T03:23:12.080Z,13.88
2019-06-07T03:24:12.063Z,13.90
2019-06-07T03:25:12.044Z,13.85
2019-06-07T03:26:12.034Z,13.98
2019-06-07T03:27:43.961Z,14.03
2019-06-07T03:28:11.994Z,13.94
2019-06-07T03:29:11.976Z,14.03
2019-06-07T03:30:42.916Z,13.97
2019-06-07T03:31:11.943Z,14.00
2019-06-07T03:32:11.932Z,14.01
2019-06-07T03:33:11.929Z,13.94
2019-06-07T03:34:11.895Z,14.01
2019-06-07T03:35:11.900Z,13.96
2019-06-07T03:36:23.354Z,14.09
2019-06-07T03:37:11.840Z,14.18
2019-06-07T03:38:11.828Z,14.13
2019-06-07T03:39:11.808Z,14.09
2019-06-07T03:40:11.813Z,14.05
2019-06-07T03:41:11.796Z,14.00
2019-06-07T03:45:18.991Z,14.16
2019-06-07T03:46:18.971Z,14.13
2019-06-07T03:47:18.955Z,14.15
2019-06-07T03:48:18.944Z,14.16
2019-06-07T03:49:18.919Z,14.08
2019-06-07T03:50:18.906Z,14.05
2019-06-07T03:51:25.212Z,13.94
2019-06-07T03:52:18.870Z,14.09
2019-06-07T03:53:18.855Z,14.00
2019-06-07T03:54:18.838Z,13.96
2019-06-07T03:55:18.820Z,14.01
2019-06-07T03:56:18.901Z,13.98
2019-06-07T03:57:18.780Z,13.97
2019-06-07T03:58:31.611Z,14.05
2019-06-07T03:59:18.747Z,14.13
2019-06-07T04:00:18.729Z,14.13
2019-06-07T04:01:18.713Z,14.16
2019-06-07T04:02:18.697Z,14.05
2019-06-07T04:03:33.280Z,14.15
2019-06-07T04:04:18.663Z,14.11
2019-06-07T04:05:18.647Z,14.16
2019-06-07T04:06:18.630Z,14.23
2019-06-07T04:07:18.612Z,14.16
2019-06-07T04:08:18.623Z,14.22
2019-06-07T04:09:18.578Z,14.13
2019-06-07T04:10:18.561Z,14.09
2019-06-07T04:11:18.545Z,14.13
2019-06-07T04:12:18.529Z,13.96
2019-06-07T04:13:18.517Z,13.96
2019-06-07T04:14:18.497Z,13.98
2019-06-07T04:15:18.481Z,14.04
2019-06-07T04:16:18.464Z,14.13
2019-06-07T04:17:18.443Z,14.21
2019-06-07T04:18:18.436Z,14.22
2019-06-07T04:19:18.412Z,14.26
2019-06-07T04:20:18.410Z,14.28
2019-06-07T04:21:18.378Z,14.36
2019-06-07T04:22:18.480Z,14.40
2019-06-07T04:23:27.596Z,14.38
2019-06-07T04:24:18.323Z,14.36
2019-06-07T04:25:18.310Z,14.38
2019-06-07T04:26:18.295Z,14.45
2019-06-07T04:27:18.275Z,14.38
2019-06-07T04:28:18.259Z,14.45
2019-06-07T04:29:33.337Z,14.38
2019-06-07T04:30:18.228Z,14.49
2019-06-07T04:31:18.212Z,14.45
2019-06-07T04:32:18.198Z,14.46
2019-06-07T04:33:18.182Z,14.44
2019-06-07T04:34:18.158Z,14.51
2019-06-07T04:35:18.155Z,14.37
2019-06-07T04:36:18.130Z,14.36
2019-06-07T04:37:18.113Z,14.27
2019-06-07T04:38:18.095Z,14.26
2019-06-07T04:39:18.164Z,14.13
2019-06-07T04:40:18.071Z,14.11
2019-06-07T04:41:18.059Z,14.15
2019-06-07T04:42:18.030Z,14.19
2019-06-07T04:43:18.021Z,14.21
2019-06-07T04:44:17.995Z,14.16
2019-06-07T04:45:33.499Z,14.18
2019-06-07T04:46:17.962Z,14.12
2019-06-07T04:47:17.944Z,14.16
2019-06-07T04:48:17.929Z,14.18
2019-06-07T04:49:17.913Z,14.19
2019-06-07T04:50:17.911Z,14.04
2019-06-07T04:51:17.936Z,14.13
2019-06-07T04:52:17.883Z,14.12
2019-06-07T04:53:17.844Z,14.13
2019-06-07T04:54:17.830Z,14.16
2019-06-07T04:55:17.811Z,14.28
2019-06-07T04:56:17.799Z,14.31
2019-06-07T04:57:17.807Z,14.37
2019-06-07T04:58:17.764Z,14.37
2019-06-07T05:00:00.456Z,14.26
2019-06-07T05:00:46.695Z,14.36
2019-06-07T05:01:27.402Z,14.22
2019-06-07T05:02:17.695Z,14.28
2019-06-07T05:03:17.683Z,14.33
2019-06-07T05:04:17.669Z,14.40
2019-06-07T05:05:17.647Z,14.49
2019-06-07T05:06:17.631Z,14.48
2019-06-07T05:07:17.618Z,14.48
2019-06-07T05:08:28.158Z,14.46
2019-06-07T05:09:17.584Z,14.46
2019-06-07T05:10:17.570Z,14.45
2019-06-07T05:11:17.549Z,14.55
2019-06-07T05:12:17.532Z,14.66
2019-06-07T05:13:17.526Z,14.78
2019-06-07T05:14:17.510Z,14.73
2019-06-07T05:15:17.484Z,14.77
2019-06-07T05:16:17.468Z,14.74
2019-06-07T05:17:17.464Z,14.70
2019-06-07T05:18:17.436Z,14.71
2019-06-07T05:19:17.421Z,14.79
2019-06-07T05:20:17.405Z,14.56
2019-06-07T05:21:17.383Z,14.56
2019-06-07T05:22:17.368Z,14.58
2019-06-07T05:23:59.937Z,14.56
2019-06-07T05:24:17.333Z,14.71
2019-06-07T05:25:17.332Z,14.74
2019-06-07T05:26:17.305Z,14.79
2019-06-07T05:27:17.284Z,14.93
2019-06-07T05:28:17.269Z,15.07
2019-06-07T05:29:17.255Z,15.10
2019-06-07T05:30:57.662Z,15.19
2019-06-07T05:31:17.257Z,15.19
2019-06-07T05:32:17.205Z,15.33
2019-06-07T05:33:17.191Z,15.45
2019-06-07T05:34:17.199Z,15.44
2019-06-07T05:35:17.188Z,15.50
2019-06-07T05:36:17.172Z,15.59
2019-06-07T05:37:17.132Z,15.56
2019-06-07T05:38:17.114Z,15.60
2019-06-07T05:39:17.107Z,15.65
2019-06-07T05:40:17.083Z,15.69
2019-06-07T05:41:17.062Z,15.65
2019-06-07T05:42:17.057Z,15.73
2019-06-07T05:43:17.040Z,15.78
2019-06-07T05:44:17.012Z,15.78
2019-06-07T05:45:17.001Z,15.87
2019-06-07T05:46:16.981Z,15.93
2019-06-07T05:47:17.057Z,15.87
2019-06-07T05:48:16.959Z,15.95
2019-06-07T05:49:16.953Z,15.95
2019-06-07T05:50:38.575Z,16.03
2019-06-07T05:51:16.901Z,16.10
2019-06-07T05:52:16.897Z,16.08
2019-06-07T05:53:16.872Z,16.10
2019-06-07T05:54:16.856Z,16.06
2019-06-07T05:55:16.841Z,16.17
2019-06-07T05:56:17.282Z,16.06
2019-06-07T05:57:16.811Z,16.02
2019-06-07T05:58:16.801Z,16.10
2019-06-07T05:59:16.779Z,16.06
2019-06-07T06:00:16.763Z,16.17
2019-06-07T06:02:22.604Z,16.09
2019-06-07T06:03:16.792Z,16.09
2019-06-07T06:04:16.705Z,16.21
2019-06-07T06:05:32.760Z,16.22
2019-06-07T06:06:16.675Z,16.34
2019-06-07T06:07:16.657Z,16.40
2019-06-07T06:08:16.641Z,16.46
2019-06-07T06:09:16.624Z,16.32
2019-06-07T06:10:16.610Z,16.17
2019-06-07T06:11:16.722Z,16.28
2019-06-07T06:12:34.017Z,16.33
2019-06-07T06:13:16.564Z,16.28
2019-06-07T06:14:16.550Z,16.28
2019-06-07T06:15:16.539Z,16.34
2019-06-07T06:16:16.518Z,16.49
2019-06-07T06:17:16.506Z,16.37
2019-06-07T06:18:16.489Z,16.44
2019-06-07T06:19:16.475Z,16.49
2019-06-07T06:20:16.474Z,16.58
2019-06-07T06:21:19.934Z,16.57
2019-06-07T06:22:16.430Z,16.61
2019-06-07T06:23:16.421Z,16.70
2019-06-07T06:24:16.402Z,16.80
2019-06-07T06:25:31.375Z,16.94
2019-06-07T06:26:16.371Z,16.83
2019-06-07T06:28:02.091Z,16.95
2019-06-07T06:28:16.432Z,17.10
2019-06-07T06:29:16.324Z,17.19
2019-06-07T06:30:16.311Z,17.27
2019-06-07T06:31:16.302Z,17.34
2019-06-07T06:32:41.308Z,17.41
2019-06-07T06:33:32.886Z,17.49
2019-06-07T06:34:16.250Z,17.41
2019-06-07T06:35:16.240Z,17.50
2019-06-07T06:36:16.310Z,17.56
2019-06-07T06:37:16.213Z,17.52
2019-06-07T06:38:16.192Z,17.59
2019-06-07T06:39:16.181Z,17.68
2019-06-07T06:40:16.164Z,17.49
2019-06-07T06:41:16.838Z,17.45
2019-06-07T06:42:16.140Z,17.47
2019-06-07T06:43:16.150Z,17.50
2019-06-07T06:44:16.107Z,17.66
2019-06-07T06:45:16.102Z,17.69
2019-06-07T06:46:37.538Z,17.71
2019-06-07T06:47:16.064Z,17.79
2019-06-07T06:48:16.051Z,17.75
2019-06-07T06:49:16.060Z,17.90
2019-06-07T06:50:16.027Z,17.99
2019-06-07T06:51:16.007Z,18.03
2019-06-07T06:52:16.001Z,18.17
2019-06-07T06:53:15.984Z,18.26
2019-06-07T06:54:15.973Z,18.31
2019-06-07T06:55:15.949Z,18.33
2019-06-07T06:56:15.937Z,18.31
2019-06-07T06:57:19.969Z,18.21
2019-06-07T06:58:15.915Z,18.20
2019-06-07T06:59:39.307Z,18.17
2019-06-07T07:00:15.879Z,18.27
2019-06-07T07:01:15.872Z,18.31
2019-06-07T07:02:15.854Z,18.31
2019-06-07T07:03:56.805Z,18.49
2019-06-07T07:04:15.824Z,18.52
2019-06-07T07:05:15.817Z,18.66
2019-06-07T07:06:26.089Z,18.66
2019-06-07T07:07:15.785Z,18.64
2019-06-07T07:08:15.771Z,18.66
2019-06-07T07:09:15.756Z,18.66
2019-06-07T07:10:15.746Z,18.76
2019-06-07T07:11:15.728Z,18.86
2019-06-07T07:12:15.721Z,18.91
2019-06-07T07:13:15.704Z,18.79
2019-06-07T07:14:15.807Z,18.86
2019-06-07T07:15:15.681Z,18.91
2019-06-07T07:16:15.661Z,18.91
2019-06-07T07:17:15.649Z,18.89
2019-06-07T07:18:15.633Z,18.97
2019-06-07T07:19:15.621Z,18.93
2019-06-07T07:20:15.620Z,19.00
2019-06-07T07:21:15.599Z,19.07
2019-06-07T07:22:15.581Z,19.13
2019-06-07T07:23:15.567Z,19.15
2019-06-07T07:24:21.560Z,19.24
2019-06-07T07:25:15.548Z,19.22
2019-06-07T07:26:15.531Z,19.20
2019-06-07T07:27:15.517Z,19.23
2019-06-07T07:28:15.504Z,19.08
2019-06-07T07:29:15.488Z,19.12
2019-06-07T07:30:36.642Z,19.13
2019-06-07T07:31:15.461Z,19.20
2019-06-07T07:32:15.452Z,19.13
2019-06-07T07:33:15.572Z,19.15
2019-06-07T07:34:35.295Z,19.26
2019-06-07T07:35:15.413Z,19.32
2019-06-07T07:36:37.451Z,19.31
2019-06-07T07:37:15.383Z,19.34
2019-06-07T07:38:15.374Z,19.52
2019-06-07T07:39:15.392Z,19.52
2019-06-07T07:40:56.105Z,19.53
2019-06-07T07:41:15.980Z,19.59
2019-06-07T07:42:21.162Z,19.56
2019-06-07T07:43:15.306Z,19.77
2019-06-07T07:44:15.294Z,19.81
2019-06-07T07:45:15.282Z,19.81
2019-06-07T07:46:30.284Z,19.82
2019-06-07T07:47:15.257Z,19.81
2019-06-07T07:48:18.141Z,19.82
2019-06-07T07:49:15.245Z,19.75
2019-06-07T07:50:15.220Z,19.82
2019-06-07T07:51:15.209Z,19.79
2019-06-07T07:52:15.192Z,19.75
2019-06-07T07:53:15.184Z,19.84
2019-06-07T07:54:15.169Z,19.92
2019-06-07T07:55:15.211Z,19.77
2019-06-07T07:56:16.231Z,19.87
2019-06-07T07:57:15.126Z,20.00
2019-06-07T07:58:15.125Z,20.09
2019-06-07T07:59:15.101Z,20.12
2019-06-07T08:00:49.307Z,20.18
2019-06-07T08:01:15.075Z,20.22
2019-06-07T08:02:15.072Z,20.34
2019-06-07T08:03:15.062Z,20.50
2019-06-07T08:04:15.063Z,20.27
2019-06-07T08:05:25.163Z,20.14
2019-06-07T08:06:15.016Z,20.25
2019-06-07T08:07:14.999Z,20.37
2019-06-07T08:08:15.001Z,20.34
2019-06-07T08:09:14.977Z,20.27
2019-06-07T08:10:14.964Z,20.15
2019-06-07T08:11:14.951Z,19.97
2019-06-07T08:12:14.946Z,20.11
2019-06-07T08:13:24.567Z,20.26
2019-06-07T08:14:14.912Z,20.09
2019-06-07T08:15:14.910Z,20.02
2019-06-07T08:16:18.567Z,20.15
2019-06-07T08:17:14.873Z,20.34
2019-06-07T08:18:14.865Z,20.55
2019-06-07T08:19:14.858Z,20.52
2019-06-07T08:20:14.838Z,20.36
2019-06-07T08:21:24.373Z,20.36
2019-06-07T08:22:14.813Z,20.49
2019-06-07T08:23:14.803Z,20.64
2019-06-07T08:24:14.792Z,20.63
2019-06-07T08:25:14.776Z,20.70
2019-06-07T08:26:14.766Z,20.86
2019-06-07T08:27:25.942Z,20.79
2019-06-07T08:28:14.740Z,20.71
2019-06-07T08:29:14.731Z,20.70
2019-06-07T08:30:47.291Z,20.65
2019-06-07T08:31:14.706Z,20.52
2019-06-07T08:32:14.696Z,20.55
2019-06-07T08:33:25.947Z,20.67
2019-06-07T08:34:14.679Z,20.60
2019-06-07T08:36:02.464Z,20.41
2019-06-07T08:36:21.878Z,20.67
2019-06-07T08:37:14.632Z,20.75
2019-06-07T08:38:26.538Z,20.92
2019-06-07T08:39:14.606Z,20.95
2019-06-07T08:40:14.597Z,20.68
2019-06-07T08:41:14.596Z,20.58
2019-06-07T08:42:21.469Z,20.50
2019-06-07T08:43:20.755Z,20.52
2019-06-07T08:44:23.363Z,20.74
2019-06-07T08:45:14.538Z,20.74
2019-06-07T08:46:14.523Z,20.90
2019-06-07T08:47:20.706Z,21.16
2019-06-07T08:48:27.551Z,21.50
2019-06-07T08:49:14.496Z,21.32
2019-06-07T08:50:14.481Z,21.28
2019-06-07T08:51:14.463Z,21.19
2019-06-07T08:52:14.452Z,21.14
2019-06-07T08:53:14.440Z,20.98
2019-06-07T08:54:22.189Z,21.11
2019-06-07T08:55:14.415Z,21.22
2019-06-07T08:56:14.413Z,21.28
2019-06-07T08:57:21.379Z,21.41
2019-06-07T08:58:14.384Z,21.37
2019-06-07T08:59:14.370Z,21.66
2019-06-07T09:00:45.449Z,21.58
2019-06-07T09:01:14.353Z,21.62
2019-06-07T09:02:23.247Z,21.67
2019-06-07T09:03:14.339Z,21.74
2019-06-07T09:04:14.322Z,21.35
2019-06-07T09:05:14.314Z,21.53
2019-06-07T09:07:01.322Z,21.63
2019-06-07T09:07:19.524Z,21.75
2019-06-07T09:08:29.126Z,21.53
2019-06-07T09:09:14.279Z,21.38
2019-06-07T09:10:15.293Z,21.50
2019-06-07T09:11:14.257Z,21.43
2019-06-07T09:12:14.320Z,21.60
2019-06-07T09:13:14.239Z,21.63
2019-06-07T09:14:14.233Z,21.73
2019-06-07T09:15:22.764Z,21.60
2019-06-07T09:16:14.221Z,21.14
2019-06-07T09:17:14.206Z,21.19
2019-06-07T09:19:14.190Z,21.41
2019-06-07T09:20:34.955Z,21.51
2019-06-07T09:21:14.174Z,21.58
2019-06-07T09:22:14.164Z,21.69
2019-06-07T09:23:17.123Z,21.55
2019-06-07T09:24:14.148Z,21.29
2019-06-07T09:25:20.897Z,21.45
2019-06-07T09:26:18.313Z,21.50
2019-06-07T09:27:14.120Z,21.47
2019-06-07T09:28:19.327Z,21.53
2019-06-07T09:29:14.109Z,21.81
2019-06-07T09:30:18.611Z,21.94
2019-06-07T09:31:14.092Z,21.60
2019-06-07T09:32:18.164Z,21.90
2019-06-07T09:33:14.072Z,21.91
2019-06-07T09:34:15.117Z,22.06
2019-06-07T09:35:17.535Z,21.93
2019-06-07T09:36:14.043Z,21.77
2019-06-07T09:38:03.067Z,21.78
2019-06-07T09:38:24.701Z,21.98
2019-06-07T09:39:14.075Z,22.51
2019-06-07T09:40:24.301Z,22.68
2019-06-07T09:41:13.998Z,22.91
2019-06-07T09:42:14.004Z,23.10
2019-06-07T09:44:23.639Z,23.04
2019-06-07T09:45:14.251Z,23.07
2019-06-07T09:46:15.968Z,22.81
2019-06-07T09:47:31.165Z,22.91
2019-06-07T09:48:16.438Z,23.25
2019-06-07T09:49:28.607Z,23.41
2019-06-07T09:50:13.923Z,23.36
2019-06-07T09:51:19.593Z,23.51
2019-06-07T09:52:13.923Z,23.66
2019-06-07T09:53:22.503Z,23.82
2019-06-07T09:55:02.147Z,23.42
2019-06-07T09:55:23.474Z,23.33
2019-06-07T09:56:13.880Z,23.74
2019-06-07T09:57:17.294Z,24.04
2019-06-07T09:59:13.854Z,24.40
2019-06-07T10:00:39.179Z,24.76
2019-06-07T10:01:14.149Z,25.04
2019-06-07T10:02:13.994Z,25.04
2019-06-07T10:03:21.307Z,24.79
2019-06-07T10:04:30.250Z,25.09
2019-06-07T10:05:14.417Z,24.62
2019-06-07T10:06:14.081Z,24.79
2019-06-07T10:07:30.606Z,24.38
2019-06-07T10:09:01.059Z,24.55
2019-06-07T10:11:13.848Z,25.19
2019-06-07T10:12:13.738Z,25.30
2019-06-07T10:13:13.726Z,25.04
2019-06-07T10:14:13.715Z,24.81
2019-06-07T10:15:13.708Z,24.91
2019-06-07T10:16:13.695Z,24.71
2019-06-07T10:17:13.687Z,24.59
2019-06-07T10:18:13.687Z,24.71
2019-06-07T10:19:13.675Z,24.70
2019-06-07T10:20:13.658Z,24.60
2019-06-07T10:21:15.030Z,24.21
2019-06-07T10:22:13.644Z,24.07
2019-06-07T10:23:13.634Z,23.97
2019-06-07T10:24:13.622Z,24.16
2019-06-07T10:25:13.617Z,23.74
2019-06-07T10:26:13.605Z,23.45
2019-06-07T10:27:13.595Z,23.98
2019-06-07T10:28:13.585Z,24.15
2019-06-07T10:29:13.585Z,24.59
2019-06-07T10:30:13.568Z,23.85
2019-06-07T10:31:13.556Z,23.60
2019-06-07T10:32:13.544Z,23.61
2019-06-07T10:33:13.547Z,24.07
2019-06-07T10:34:13.529Z,24.13
2019-06-07T10:35:16.321Z,24.03
2019-06-07T10:36:13.506Z,24.13
2019-06-07T10:37:15.587Z,24.08
2019-06-07T10:38:13.484Z,24.10
2019-06-07T10:39:13.479Z,24.10
2019-06-07T10:40:13.479Z,23.71
2019-06-07T10:41:13.454Z,23.51
2019-06-07T10:42:13.450Z,23.26
2019-06-07T10:43:14.507Z,23.08
2019-06-07T10:44:13.438Z,22.92
2019-06-07T10:45:13.415Z,23.14
2019-06-07T10:46:13.414Z,22.96
2019-06-07T10:47:13.412Z,22.83
2019-06-07T10:48:13.381Z,22.76
2019-06-07T10:49:13.378Z,22.95
2019-06-07T10:50:13.371Z,23.07
2019-06-07T10:51:14.841Z,23.11
2019-06-07T10:52:13.418Z,23.34
2019-06-07T10:53:13.331Z,23.23
2019-06-07T10:54:24.526Z,23.08
2019-06-07T10:55:13.311Z,23.07
2019-06-07T10:56:13.484Z,23.23
2019-06-07T10:57:16.063Z,23.46
2019-06-07T10:58:13.353Z,23.55
2019-06-07T10:59:13.687Z,23.70
2019-06-07T11:00:13.585Z,23.56
2019-06-07T11:01:14.413Z,23.64
2019-06-07T11:02:14.039Z,23.79
2019-06-07T11:03:14.272Z,23.60
2019-06-07T11:04:13.849Z,23.89
2019-06-07T11:05:14.475Z,24.00
2019-06-07T11:06:14.272Z,23.86
2019-06-07T11:07:14.441Z,23.88
2019-06-07T11:08:14.600Z,23.92
2019-06-07T11:09:14.252Z,23.88
2019-06-07T11:10:17.790Z,24.06
2019-06-07T11:11:14.254Z,24.18
2019-06-07T11:12:15.135Z,24.44
2019-06-07T11:13:14.381Z,24.63
2019-06-07T11:14:13.115Z,24.56
2019-06-07T11:15:13.131Z,24.51
2019-06-07T11:16:13.175Z,24.37
2019-06-07T11:17:13.391Z,24.34
2019-06-07T11:18:14.442Z,24.10
2019-06-07T11:19:16.380Z,23.92
2019-06-07T11:20:14.414Z,24.07
2019-06-07T11:21:14.300Z,23.98
2019-06-07T11:22:14.170Z,24.21
2019-06-07T11:23:14.271Z,24.25
2019-06-07T11:24:14.358Z,24.13
2019-06-07T11:25:14.375Z,24.04
2019-06-07T11:26:14.339Z,24.16
2019-06-07T11:27:13.930Z,24.22
2019-06-07T11:28:12.974Z,24.28
2019-06-07T11:29:12.961Z,24.10
2019-06-07T11:30:12.949Z,24.19
2019-06-07T11:31:13.350Z,24.19
2019-06-07T11:32:12.931Z,24.29
2019-06-07T11:33:15.741Z,24.43
2019-06-07T11:34:12.907Z,24.43
2019-06-07T11:35:13.982Z,24.38
2019-06-07T11:36:12.964Z,24.29
2019-06-07T11:37:13.859Z,24.36
2019-06-07T11:38:12.864Z,24.00
2019-06-07T11:39:12.896Z,23.94
2019-06-07T11:40:35.604Z,24.03
2019-06-07T11:41:13.546Z,24.16
2019-06-07T11:42:13.995Z,24.07
2019-06-07T11:43:12.862Z,24.11
2019-06-07T11:44:13.053Z,24.31
2019-06-07T11:45:14.898Z,24.37
2019-06-07T11:46:12.991Z,24.65
2019-06-07T11:47:14.423Z,24.63
2019-06-07T11:48:13.466Z,24.55
2019-06-07T11:49:13.440Z,24.44
2019-06-07T11:50:13.750Z,24.36
2019-06-07T11:51:12.732Z,24.37
2019-06-07T11:52:13.911Z,24.55
2019-06-07T11:53:12.765Z,24.74
2019-06-07T11:54:13.996Z,24.82
2019-06-07T11:55:13.589Z,24.62
2019-06-07T11:56:13.937Z,24.59
2019-06-07T11:57:13.072Z,24.62
2019-06-07T11:58:16.230Z,24.90
2019-06-07T11:59:13.390Z,24.90
2019-06-07T12:00:13.907Z,24.45
